Latest Weather Observations for Mackay Airport

IDQ60801

Issued at 10:32 pm EST Monday 2 March 2015 (issued every 30 minutes, with the page automatically refreshed every 10 minutes)

About weather observations | Map of weather stations | Latest weather observations for QLD | Other Formats
Station Details ID: 033045 Name: MACKAY AERO Lat: -21.17 Lon: 149.18 Height: 4.7 m
Data from the previous 72 hours. | See also: Recent months at Mackay Airport
Date/Time
EST
Temp
°C
App
Temp
°C
Dew
Point
Rel
Hum
%
Delta-T
°C
Wind Press
QNH
hPa
Press
MSL
hPa
Rain
since 9 am
mm
Dir
 
Spd
km/h
Gust
km/h
Spd
kts
Gust
kts
02/10:00pm 27.4 27.7 22.3 73 3.4 ESE 24 30 13 16 1011.4 1011.4 0.0
02/09:30pm 27.5 27.7 22.7 75 3.3 ESE 26 32 14 17 1011.5 1011.5 0.0
02/09:00pm 27.7 28.2 22.6 74 3.5 ESE 24 32 13 17 1011.3 1011.3 0.0
02/08:30pm 27.7 28.8 22.4 73 3.6 E 20 30 11 16 1010.8 1010.8 0.0
02/08:00pm 27.6 29.0 22.8 75 3.3 E 20 24 11 13 1010.5 1010.5 0.0
02/07:30pm 27.8 29.1 22.7 74 3.5 ESE 20 26 11 14 1010.1 1010.1 0.0
02/07:00pm 27.7 28.8 22.4 73 3.6 E 20 28 11 15 1009.7 1009.7 0.0
02/06:30pm 27.8 29.7 22.7 74 3.5 E 17 22 9 12 1009.2 1009.2 0.0
02/06:00pm 28.3 29.5 22.5 71 3.9 E 20 24 11 13 1009.1 1009.1 0.0
02/05:30pm 28.7 29.8 22.4 68 4.3 E 20 26 11 14 1009.0 1009.0 0.0
02/05:00pm 28.9 29.7 22.4 68 4.4 E 22 32 12 17 1008.7 1008.7 0.0
02/04:30pm 29.4 30.5 22.4 66 4.7 E 20 26 11 14 1008.1 1008.1 0.0
02/04:00pm 29.5 30.0 22.0 64 5.1 E 22 30 12 16 1008.1 1008.1 0.0
02/03:30pm 29.8 30.2 22.5 65 5.0 E 24 32 13 17 1008.0 1008.0 0.0
02/03:00pm 29.5 29.8 22.2 65 4.9 ESE 24 32 13 17 1008.3 1008.3 0.0
02/02:30pm 29.7 30.0 22.2 64 5.1 ESE 24 32 13 17 1008.4 1008.4 0.0
02/02:00pm 30.0 30.7 22.2 63 5.3 ESE 22 32 12 17 1008.7 1008.7 0.0
02/01:30pm 30.0 30.8 22.4 63 5.2 ESE 22 30 12 16 1009.1 1009.1 0.0
02/01:00pm 29.8 30.9 22.3 64 5.1 E 20 28 11 15 1009.4 1009.4 0.0
02/12:30pm 30.5 32.2 23.4 66 4.9 E 20 26 11 14 1009.8 1009.8 0.0
02/12:00pm 29.6 31.0 22.6 66 4.8 E 19 24 10 13 1010.0 1010.0 0.0
02/11:30am 30.0 31.7 23.4 67 4.5 E 20 24 11 13 1010.2 1010.2 0.0
02/11:00am 29.3 31.1 22.5 67 4.6 ESE 17 24 9 13 1010.5 1010.5 0.0
02/10:30am 29.5 32.3 23.0 68 4.4 ESE 13 20 7 11 1010.6 1010.6 0.0
02/10:00am 29.2 31.9 22.2 66 4.7 ESE 11 17 6 9 1010.4 1010.4 0.0
02/09:30am 29.2 32.3 22.9 69 4.3 E 11 17 6 9 1010.4 1010.4 0.0
02/09:00am 28.9 32.5 23.1 71 4.0 SE 9 15 5 8 1010.5 1010.5 0.0
02/08:30am 28.0 31.9 22.5 72 3.7 N 6 9 3 5 1010.4 1010.4 0.0
02/08:00am 27.0 30.9 23.0 79 2.7 NNW 7 9 4 5 1010.0 1010.0 0.0
02/07:30am 25.8 29.0 23.1 85 1.8 NNW 11 13 6 7 1010.1 1010.1 0.0
02/07:00am 24.4 27.8 22.7 90 1.1 NNW 9 11 5 6 1009.8 1009.8 0.0
02/06:00am 22.8 26.0 21.6 93 0.8 NNW 7 7 4 4 1008.8 1008.8 0.0
02/05:30am 22.6 25.3 21.4 93 0.8 NNW 9 9 5 5 1008.7 1008.7 0.0
02/05:00am 23.0 26.3 21.8 93 0.8 NNW 7 9 4 5 1008.4 1008.4 0.0
02/04:30am 23.4 28.1 22.0 92 0.9 CALM 0 4 0 2 1008.0 1008.0 0.0
02/04:00am 23.1 26.4 21.5 91 1.1 NNW 6 7 3 4 1007.9 1007.9 0.0
02/03:30am 23.3 26.3 21.9 92 0.9 NNW 9 9 5 5 1008.1 1008.1 0.0
02/03:00am 23.4 26.3 21.8 91 1.1 NNW 9 11 5 6 1008.2 1008.2 0.0
02/02:30am 24.3 28.0 22.6 90 1.1 NNW 7 9 4 5 1008.2 1008.2 0.0
02/02:00am 24.7 29.3 22.4 87 1.5 NNW 2 6 1 3 1008.5 1008.5 0.0
02/01:30am 24.8 28.7 22.5 87 1.5 NNW 6 9 3 5 1008.8 1008.8 0.0
02/01:00am 25.6 29.7 22.9 85 1.8 NNW 6 7 3 4 1009.4 1009.4 0.0
02/12:30am 25.4 29.1 22.5 84 1.9 NW 7 9 4 5 1009.5 1009.5 0.0
02/12:00am 26.0 30.0 22.7 82 2.2 NW 6 7 3 4 1009.8 1009.8 0.0
 
Date/Time
EST
Temp
°C
App
Temp
°C
Dew
Point
Rel
Hum
%
Delta-T
°C
Wind Press
QNH
hPa
Press
MSL
hPa
Rain
since 9 am
mm
Dir
 
Spd
km/h
Gust
km/h
Spd
kts
Gust
kts
01/11:30pm 26.3 30.2 23.0 82 2.2 NNW 7 7 4 4 1010.0 1010.0 0.0
01/11:00pm 26.1 29.9 22.8 82 2.2 N 7 9 4 5 1010.1 1010.1 0.0
01/10:30pm 26.2 29.9 22.5 80 2.5 NNE 7 9 4 5 1010.0 1010.0 0.0
01/10:00pm 26.7 29.9 22.3 77 3.0 NNE 9 11 5 6 1009.9 1009.9 0.0
01/09:30pm 27.0 30.2 22.4 76 3.1 NNE 9 13 5 7 1009.9 1009.9 0.0
01/09:00pm 27.0 30.5 22.2 75 3.2 NE 7 9 4 5 1009.6 1009.6 0.0
01/08:30pm 27.3 30.5 22.3 74 3.4 NE 9 9 5 5 1009.2 1009.2 0.0
01/08:00pm 27.4 30.6 22.3 73 3.4 NNE 9 11 5 6 1009.0 1009.0 0.0
01/07:30pm 27.4 30.1 22.1 73 3.6 NNE 11 13 6 7 1008.6 1008.6 0.0
01/07:00pm 27.7 30.1 22.2 72 3.7 NNE 13 17 7 9 1008.3 1008.3 0.0
01/06:30pm 28.0 29.9 22.0 70 4.0 NE 15 19 8 10 1007.8 1007.8 0.0
01/06:00pm 28.3 29.6 21.6 67 4.5 ENE 17 20 9 11 1007.5 1007.5 0.0
01/05:30pm 28.7 29.9 21.5 65 4.8 ENE 17 22 9 12 1007.4 1007.4 0.0
01/05:00pm 28.9 29.9 21.7 65 4.8 ENE 19 26 10 14 1007.3 1007.3 0.0
01/04:30pm 29.3 30.5 21.5 63 5.2 ENE 17 24 9 13 1007.2 1007.2 0.0
01/04:00pm 29.6 31.0 22.6 66 4.8 ENE 19 24 10 13 1007.2 1007.2 0.0
01/03:30pm 29.7 31.0 22.4 65 5.0 ENE 19 24 10 13 1007.2 1007.2 0.0
01/03:00pm 29.5 30.5 21.7 63 5.3 ENE 19 24 10 13 1007.4 1007.4 0.0
01/02:30pm 29.9 31.6 22.3 63 5.2 ENE 17 22 9 12 1007.5 1007.5 0.0
01/02:00pm 29.7 30.5 22.4 65 5.0 ENE 22 26 12 14 1007.6 1007.6 0.0
01/01:30pm 30.1 31.5 22.5 63 5.2 E 19 26 10 14 1007.9 1007.9 0.0
01/01:00pm 30.9 33.0 24.1 67 4.7 ENE 20 28 11 15 1008.2 1008.2 0.0
01/12:30pm 29.6 30.4 21.8 63 5.3 E 20 26 11 14 1008.7 1008.7 0.0
01/12:00pm 29.9 31.7 23.3 67 4.5 ENE 19 24 10 13 1009.1 1009.1 0.0
01/11:30am 29.8 32.0 23.3 68 4.5 ENE 17 22 9 12 1009.3 1009.3 0.0
01/11:00am 29.3 31.6 22.8 68 4.4 E 15 19 8 10 1009.8 1009.8 0.0
01/10:30am 29.2 31.2 22.2 66 4.7 E 15 20 8 11 1010.2 1010.2 0.0
01/10:00am 29.1 31.3 22.6 68 4.4 E 15 19 8 10 1010.4 1010.4 0.0
01/09:30am 29.0 31.6 22.7 69 4.3 ENE 13 19 7 10 1010.2 1010.2 0.0
01/09:00am 29.2 33.0 22.7 68 4.4 SE 7 11 4 6 1010.2 1010.2 0.0
01/08:30am 27.7 31.4 22.6 74 3.5 SSE 7 11 4 6 1009.9 1009.9 0.0
01/08:00am 26.4 30.4 23.1 82 2.2 SSW 7 9 4 5 1009.6 1009.6 0.0
01/07:30am 25.0 28.5 22.9 88 1.4 SSW 9 11 5 6 1009.3 1009.3 0.0
01/07:00am 23.9 27.1 22.3 91 1.1 WSW 9 11 5 6 1009.0 1009.0 0.0
01/06:30am 22.7 26.0 21.9 95 0.5 WSW 7 9 4 5 1008.6 1008.6 0.0
01/06:00am 22.4 25.6 21.6 95 0.5 WSW 7 9 4 5 1008.3 1008.3 0.0
01/05:30am 22.7 26.0 21.9 95 0.5 WSW 7 9 4 5 1008.1 1008.1 0.0
01/05:00am 22.7 25.7 21.9 95 0.5 WSW 9 11 5 6 1007.8 1007.8 0.0
01/04:30am 22.6 27.0 21.4 93 0.8 CALM 0 0 0 0 1007.5 1007.5 0.0
01/04:00am 22.9 26.3 21.7 93 0.8 W 6 6 3 3 1007.6 1007.6 0.0
01/03:30am 23.0 26.4 22.0 94 0.7 W 7 9 4 5 1007.8 1007.8 0.0
01/03:00am 23.3 27.9 21.7 91 1.1 CALM 0 0 0 0 1007.9 1007.9 0.0
01/02:30am 23.3 26.5 21.7 91 1.1 W 7 11 4 6 1008.1 1008.1 0.0
01/02:00am 23.3 26.6 21.9 92 0.9 SW 7 11 4 6 1008.5 1008.5 0.0
01/01:30am 23.8 26.9 22.2 91 1.1 SW 9 11 5 6 1008.9 1008.9 0.0
01/01:00am 24.7 27.6 22.4 87 1.5 W 11 13 6 7 1009.2 1009.2 0.0
01/12:30am 25.8 29.0 22.3 81 2.3 NNE 9 13 5 7 1009.3 1009.3 0.0
01/12:00am 26.7 30.3 23.0 80 2.5 NE 9 11 5 6 1009.6 1009.6 0.0
 
Date/Time
EST
Temp
°C
App
Temp
°C
Dew
Point
Rel
Hum
%
Delta-T
°C
Wind Press
QNH
hPa
Press
MSL
hPa
Rain
since 9 am
mm
Dir
 
Spd
km/h
Gust
km/h
Spd
kts
Gust
kts
28/11:30pm 26.7 30.0 22.5 78 2.8 NE 9 11 5 6 1009.7 1009.7 0.0
28/11:00pm 27.0 30.5 22.8 78 2.9 NE 9 13 5 7 1010.0 1010.0 0.0
28/10:30pm 27.2 30.2 22.6 76 3.1 NE 11 15 6 8 1009.9 1009.9 0.0
28/10:00pm 27.3 29.9 22.7 76 3.1 ENE 13 19 7 10 1009.8 1009.8 0.0
28/09:30pm 27.3 30.8 22.9 77 3.0 NNE 9 9 5 5 1009.7 1009.7 0.0
28/09:00pm 27.2 30.5 22.6 76 3.1 NE 9 13 5 7 1009.6 1009.6 0.0
28/08:30pm 27.4 30.7 22.6 75 3.2 NE 9 15 5 8 1009.6 1009.6 0.0
28/08:00pm 27.5 30.0 22.4 73 3.4 NE 13 19 7 10 1009.1 1009.1 0.0
28/07:30pm 27.6 30.4 22.3 73 3.6 NE 11 17 6 9 1008.6 1008.6 0.0
28/07:00pm 27.7 29.8 22.4 73 3.6 NE 15 20 8 11 1008.2 1008.2 0.0
28/06:30pm 27.7 29.4 22.4 73 3.6 ENE 17 22 9 12 1007.9 1007.9 0.0
28/06:00pm 28.3 30.1 22.5 71 3.9 ENE 17 22 9 12 1007.8 1007.8 0.0
28/05:30pm 28.5 29.4 22.0 68 4.4 ENE 20 26 11 14 1007.6 1007.6 0.0
28/05:00pm 29.2 30.5 22.7 68 4.4 ENE 20 26 11 14 1007.2 1007.2 0.0
28/04:30pm 29.3 29.7 21.8 64 5.0 ENE 22 32 12 17 1007.1 1007.1 0.0
28/04:00pm 29.5 29.6 21.2 61 5.6 ENE 22 28 12 15 1007.0 1007.0 0.0
28/03:30pm 29.7 30.4 21.6 61 5.4 E 20 28 11 15 1007.0 1007.0 0.0
28/03:00pm 30.0 30.4 22.4 63 5.2 ENE 24 28 13 15 1006.8 1006.8 0.0
28/02:30pm 29.9 30.2 22.3 63 5.2 ENE 24 30 13 16 1007.0 1007.0 0.0
28/02:00pm 30.0 29.9 21.4 60 5.8 ENE 24 32 13 17 1007.2 1007.2 0.0
28/01:30pm 29.7 29.4 21.1 60 5.7 ENE 24 28 13 15 1007.7 1007.7 0.0
28/01:00pm 29.7 30.0 21.6 61 5.4 E 22 28 12 15 1008.2 1008.2 0.0
28/12:30pm 29.6 30.6 22.1 64 5.1 E 20 26 11 14 1008.5 1008.5 0.0
28/12:00pm 29.5 30.3 21.7 63 5.3 E 20 26 11 14 1009.0 1009.0 0.0
28/11:30am 29.2 30.9 22.4 66 4.6 E 17 22 9 12 1009.0 1009.0 0.0
28/11:00am 29.7 31.6 22.7 66 4.8 E 17 20 9 11 1009.1 1009.1 0.0
28/10:30am 29.3 31.6 21.3 62 5.3 E 11 17 6 9 1009.2 1009.2 0.0
28/10:00am 29.4 31.4 20.8 60 5.7 ESE 11 17 6 9 1009.5 1009.5 0.0
28/09:30am 28.7 30.7 20.7 62 5.3 ESE 11 17 6 9 1009.4 1009.4 0.0
28/09:00am 28.3 32.0 22.5 71 3.9 SW 7 9 4 5 1009.4 1009.4 0.0
28/08:30am 27.4 31.0 22.3 73 3.4 SW 7 9 4 5 1009.2 1009.2 0.0
28/08:00am 26.3 29.4 22.8 81 2.4 SW 11 13 6 7 1009.1 1009.1 0.0
28/07:30am 25.2 28.6 22.7 86 1.7 N 9 11 5 6 1008.8 1008.8 0.0
28/07:00am 23.9 27.5 22.3 91 1.1 N 7 9 4 5 1008.5 1008.5 0.0
28/06:30am 22.5 25.5 21.3 93 0.8 N 7 9 4 5 1008.2 1008.2 0.0
28/06:00am 22.5 25.2 21.3 93 0.8 N 9 9 5 5 1008.0 1008.0 0.0
28/05:30am 22.6 25.0 21.6 94 0.7 N 11 11 6 6 1007.7 1007.7 0.0
28/05:00am 22.4 25.7 21.4 94 0.7 N 6 7 3 4 1007.5 1007.5 0.0
28/04:30am 22.4 25.1 21.4 94 0.7 N 9 11 5 6 1007.6 1007.6 0.0
28/04:00am 22.9 26.2 21.5 92 0.9 N 6 7 3 4 1007.7 1007.7 0.0
28/03:30am 23.3 26.7 21.7 91 1.1 N 6 7 3 4 1007.4 1007.4 0.0
28/03:00am 23.2 26.7 21.8 92 0.9 N 6 7 3 4 1007.4 1007.4 0.0
28/02:30am 22.8 26.1 21.4 92 0.9 N 6 9 3 5 1007.6 1007.6 0.0
28/02:00am 23.1 26.5 21.7 92 0.9 N 6 7 3 4 1007.8 1007.8 0.0
28/01:30am 23.7 26.8 22.1 91 1.1 N 9 9 5 5 1008.2 1008.2 0.0
28/01:00am 23.8 27.3 21.9 89 1.3 N 6 7 3 4 1008.2 1008.2 0.0
28/12:30am 23.5 26.9 21.6 89 1.3 N 6 9 3 5 1008.4 1008.4 0.0
28/12:00am 23.9 27.0 21.4 86 1.7 N 7 9 4 5 1008.6 1008.6 0.0
 
Date/Time
EST
Temp
°C
App
Temp
°C
Dew
Point
Rel
Hum
%
Delta-T
°C
Wind Press
QNH
hPa
Press
MSL
hPa
Rain
since 9 am
mm
Dir
 
Spd
km/h
Gust
km/h
Spd
kts
Gust
kts
27/11:30pm 24.1 28.0 21.8 87 1.5 N 4 6 2 3 1008.7 1008.7 0.0
27/11:00pm 24.5 27.2 21.4 83 2.1 N 9 9 5 5 1008.7 1008.7 0.0

Other Formats:

Comma delimited format used in spreadsheet applications
http://www.bom.gov.au/fwo/IDQ60801/IDQ60801.95367.axf

JavaScript Object Notation format (JSON) in row-major order
http://www.bom.gov.au/fwo/IDQ60801/IDQ60801.95367.json